createdAt,value
2019-03-27T00:04:24.734Z,14.45
2019-03-27T00:09:32.390Z,15.16
2019-03-27T00:14:39.855Z,17.12
2019-03-27T00:19:47.522Z,17.83
2019-03-27T00:24:55.122Z,16.65
2019-03-27T00:30:02.810Z,13.61
2019-03-27T00:35:10.391Z,16.40
2019-03-27T00:40:18.080Z,15.99
2019-03-27T00:45:26.911Z,16.57
2019-03-27T00:50:32.916Z,17.17
2019-03-27T00:55:40.557Z,14.65
2019-03-27T01:00:48.265Z,17.29
2019-03-27T01:05:55.893Z,16.22
2019-03-27T01:11:03.633Z,16.19
2019-03-27T01:16:11.235Z,17.80
2019-03-27T01:21:18.695Z,17.43
2019-03-27T01:26:26.279Z,18.25
2019-03-27T01:31:33.969Z,20.76
2019-03-27T01:36:41.554Z,21.05
2019-03-27T01:41:49.254Z,21.55
2019-03-27T01:46:56.863Z,20.35
2019-03-27T01:52:07.733Z,18.24
2019-03-27T01:57:11.714Z,19.10
2019-03-27T02:02:19.376Z,25.00
2019-03-27T02:07:26.967Z,19.04
2019-03-27T02:12:34.644Z,21.24
2019-03-27T02:17:42.238Z,21.03
2019-03-27T02:22:49.890Z,22.98
2019-03-27T02:27:57.492Z,24.48
2019-03-27T02:33:05.200Z,23.54
2019-03-27T02:38:12.798Z,24.72
2019-03-27T02:43:20.470Z,22.38
2019-03-27T02:48:28.091Z,24.51
2019-03-27T02:53:35.792Z,23.17
2019-03-27T02:58:43.406Z,24.86
2019-03-27T03:03:51.048Z,21.26
2019-03-27T03:08:58.684Z,22.75
2019-03-27T03:14:06.329Z,30.74
2019-03-27T03:19:13.914Z,30.25
2019-03-27T03:24:21.600Z,27.19
2019-03-27T03:29:29.182Z,28.61
2019-03-27T03:34:36.950Z,27.13
2019-03-27T03:39:44.576Z,31.79
2019-03-27T03:44:52.280Z,30.03
2019-03-27T03:49:59.927Z,33.77
2019-03-27T03:55:07.587Z,35.00
2019-03-27T04:00:15.251Z,28.47
2019-03-27T04:05:22.853Z,32.05
2019-03-27T04:10:30.434Z,31.07
2019-03-27T04:15:38.118Z,30.41
2019-03-27T04:20:45.733Z,35.50
2019-03-27T04:26:09.213Z,35.28
2019-03-27T04:31:00.471Z,35.38
2019-03-27T04:36:08.164Z,32.69
2019-03-27T04:41:15.778Z,32.39
2019-03-27T04:46:23.452Z,32.85
2019-03-27T04:51:31.100Z,32.15
2019-03-27T04:56:38.747Z,33.44
2019-03-27T05:01:46.352Z,35.21
2019-03-27T05:06:54.048Z,35.43
2019-03-27T05:12:01.658Z,38.84
2019-03-27T05:17:09.411Z,41.29
2019-03-27T05:22:17.003Z,35.07
2019-03-27T05:27:24.906Z,34.58
2019-03-27T05:32:32.519Z,33.47
2019-03-27T05:37:40.515Z,39.01
2019-03-27T05:43:00.008Z,37.06
2019-03-27T05:47:59.823Z,32.15
2019-03-27T05:53:03.274Z,26.22
2019-03-27T05:58:11.098Z,24.73
2019-03-27T06:03:18.681Z,26.32
2019-03-27T06:08:26.407Z,25.93
2019-03-27T06:13:34.044Z,22.02
2019-03-27T06:18:41.800Z,22.90
2019-03-27T06:23:49.415Z,17.08
2019-03-27T06:28:57.122Z,19.20
2019-03-27T06:34:04.765Z,19.11
2019-03-27T06:39:12.443Z,19.58
2019-03-27T06:44:20.054Z,16.89
2019-03-27T06:49:28.003Z,18.81
2019-03-27T06:54:35.603Z,20.09
2019-03-27T06:59:43.343Z,19.09
2019-03-27T07:04:50.989Z,17.89
2019-03-27T07:09:59.346Z,15.02
2019-03-27T07:15:06.843Z,17.90
2019-03-27T07:20:14.594Z,18.44
2019-03-27T07:25:22.227Z,15.87
2019-03-27T07:30:30.080Z,14.86
2019-03-27T07:35:37.701Z,14.80
2019-03-27T07:40:45.621Z,15.82
2019-03-27T07:45:53.232Z,11.54
2019-03-27T07:51:00.933Z,7.54
2019-03-27T07:56:08.557Z,9.35
2019-03-27T08:01:16.256Z,9.90
2019-03-27T08:06:23.887Z,10.90
2019-03-27T08:11:31.759Z,11.33
2019-03-27T08:16:39.293Z,12.69
2019-03-27T08:21:47.025Z,11.93
2019-03-27T08:26:54.631Z,9.30
2019-03-27T08:32:02.466Z,10.72
2019-03-27T08:37:10.075Z,11.78
2019-03-27T08:42:17.868Z,16.74
2019-03-27T08:47:25.511Z,13.51
2019-03-27T08:52:33.314Z,15.33
2019-03-27T08:57:40.906Z,15.57
2019-03-27T09:02:48.585Z,17.21
2019-03-27T09:07:56.180Z,18.21
2019-03-27T09:13:03.949Z,19.75
2019-03-27T09:18:11.565Z,21.15
2019-03-27T09:23:19.418Z,22.10
2019-03-27T09:28:26.975Z,20.19
2019-03-27T09:33:34.614Z,20.90
2019-03-27T09:38:42.206Z,22.22
2019-03-27T09:43:49.897Z,24.43
2019-03-27T09:48:57.508Z,21.52
2019-03-27T09:54:05.155Z,30.47
2019-03-27T09:59:12.756Z,28.74
2019-03-27T10:04:20.507Z,33.23
2019-03-27T10:09:28.083Z,23.11
2019-03-27T10:14:35.731Z,30.49
2019-03-27T10:19:43.333Z,27.11
2019-03-27T10:24:51.035Z,26.37
2019-03-27T10:29:58.629Z,23.08
2019-03-27T10:35:06.349Z,26.87
2019-03-27T10:40:13.960Z,25.98
2019-03-27T10:45:21.700Z,22.92
2019-03-27T10:50:29.315Z,20.32
2019-03-27T10:55:36.952Z,18.22
2019-03-27T11:00:44.579Z,16.85
2019-03-27T11:05:52.193Z,15.32
2019-03-27T11:10:59.801Z,14.89
2019-03-27T11:16:07.526Z,16.59
2019-03-27T11:21:15.119Z,17.64
2019-03-27T11:26:22.773Z,15.94
2019-03-27T11:31:30.384Z,17.36
2019-03-27T11:36:38.015Z,15.31
2019-03-27T11:41:45.606Z,16.69
2019-03-27T11:46:53.265Z,19.31
2019-03-27T11:52:00.871Z,22.19
2019-03-27T11:57:08.537Z,21.01
2019-03-27T12:02:16.135Z,22.10
2019-03-27T12:07:23.813Z,24.27
2019-03-27T12:12:31.406Z,14.38
2019-03-27T12:17:39.223Z,14.10
2019-03-27T12:22:57.224Z,17.05
2019-03-27T12:27:54.071Z,19.08
2019-03-27T12:33:01.687Z,18.84
2019-03-27T12:38:09.349Z,21.75
2019-03-27T12:43:16.969Z,18.05
2019-03-27T12:48:24.639Z,18.89
2019-03-27T12:53:32.237Z,18.99
2019-03-27T12:58:39.891Z,18.84
2019-03-27T13:03:47.515Z,18.75
2019-03-27T13:08:55.173Z,16.88
2019-03-27T13:14:02.815Z,15.17
2019-03-27T13:19:10.539Z,15.83
2019-03-27T13:24:18.144Z,14.19
2019-03-27T13:29:25.833Z,15.33
2019-03-27T13:34:33.455Z,13.96
2019-03-27T13:39:41.110Z,14.35
2019-03-27T13:44:48.687Z,16.55
2019-03-27T13:49:56.442Z,14.71
2019-03-27T13:55:04.073Z,15.10
2019-03-27T14:00:11.747Z,16.28
2019-03-27T14:05:19.390Z,15.39
2019-03-27T14:10:27.063Z,12.56
2019-03-27T14:15:34.700Z,13.32
2019-03-27T14:20:42.401Z,18.86
2019-03-27T14:25:49.997Z,18.40
2019-03-27T14:30:57.710Z,16.02
2019-03-27T14:36:05.309Z,15.31
2019-03-27T14:41:12.943Z,12.82
2019-03-27T14:46:20.597Z,11.45
2019-03-27T14:51:28.274Z,15.62
2019-03-27T14:56:35.891Z,13.49
2019-03-27T15:01:43.544Z,14.68
2019-03-27T15:06:51.176Z,17.18
2019-03-27T15:11:59.097Z,16.15
2019-03-27T15:17:06.723Z,16.45
2019-03-27T15:22:22.172Z,12.59
2019-03-27T15:27:21.507Z,12.00
2019-03-27T15:32:29.199Z,17.09
2019-03-27T15:37:36.788Z,14.73
2019-03-27T15:42:44.542Z,12.44
2019-03-27T15:47:52.168Z,16.62
2019-03-27T15:52:59.845Z,16.44
2019-03-27T15:58:07.441Z,18.17
2019-03-27T16:03:15.172Z,18.00
2019-03-27T16:08:22.812Z,17.69
2019-03-27T16:13:30.491Z,17.57
2019-03-27T16:18:38.080Z,14.88
2019-03-27T16:23:45.753Z,15.74
2019-03-27T16:28:53.362Z,14.85
2019-03-27T16:34:01.055Z,15.79
2019-03-27T16:39:08.679Z,15.98
2019-03-27T16:44:16.361Z,14.75
2019-03-27T16:49:23.940Z,13.97
2019-03-27T16:54:31.650Z,13.59
2019-03-27T16:59:39.293Z,14.47
2019-03-27T17:04:46.940Z,13.33
2019-03-27T17:09:54.581Z,13.12
2019-03-27T17:15:02.233Z,15.75
2019-03-27T17:20:09.862Z,13.91
2019-03-27T17:25:17.569Z,13.43
2019-03-27T17:30:25.214Z,12.33
2019-03-27T17:35:32.920Z,14.88
2019-03-27T17:40:40.632Z,13.60
2019-03-27T17:45:48.283Z,13.30
2019-03-27T17:50:55.901Z,15.35
2019-03-27T17:56:03.590Z,14.76
2019-03-27T18:01:11.195Z,14.55
2019-03-27T18:06:18.866Z,15.14
2019-03-27T18:11:26.568Z,16.70
2019-03-27T18:16:34.151Z,14.42
2019-03-27T18:21:41.771Z,15.25
2019-03-27T18:26:49.408Z,13.26
2019-03-27T18:31:57.043Z,14.92
2019-03-27T18:37:04.669Z,12.22
2019-03-27T18:42:12.264Z,14.80
2019-03-27T18:47:20.077Z,14.58
2019-03-27T18:52:27.691Z,12.23
2019-03-27T18:57:35.361Z,12.78
2019-03-27T19:02:42.965Z,18.56
2019-03-27T19:07:50.727Z,12.52
2019-03-27T19:12:58.438Z,12.10
2019-03-27T19:18:06.190Z,12.76
2019-03-27T19:23:13.889Z,13.39
2019-03-27T19:28:21.627Z,11.32
2019-03-27T19:33:29.338Z,13.54
2019-03-27T19:38:37.107Z,13.17
2019-03-27T19:43:44.852Z,14.57
2019-03-27T19:48:52.648Z,13.85
2019-03-27T19:54:00.646Z,13.31
2019-03-27T19:59:08.501Z,13.95
2019-03-27T20:04:16.210Z,13.86
2019-03-27T20:09:23.952Z,14.30
2019-03-27T20:14:31.664Z,13.31
2019-03-27T20:19:39.404Z,14.82
2019-03-27T20:24:47.309Z,15.74
2019-03-27T20:29:55.019Z,14.39
2019-03-27T20:35:02.752Z,12.76
2019-03-27T20:40:10.706Z,13.65
2019-03-27T20:45:18.397Z,18.08
2019-03-27T20:50:27.093Z,15.08
2019-03-27T20:55:33.272Z,15.14
2019-03-27T21:00:40.937Z,13.19
2019-03-27T21:05:48.547Z,15.55
2019-03-27T21:10:56.295Z,15.07
2019-03-27T21:16:03.923Z,16.22
2019-03-27T21:21:11.588Z,14.82
2019-03-27T21:26:19.220Z,15.24
2019-03-27T21:31:26.929Z,17.09
2019-03-27T21:36:34.562Z,14.10
2019-03-27T21:41:42.212Z,15.40
2019-03-27T21:46:49.883Z,13.68
2019-03-27T21:51:57.559Z,13.96
2019-03-27T21:57:05.234Z,15.81
2019-03-27T22:02:12.892Z,16.60
2019-03-27T22:07:20.537Z,14.25
2019-03-27T22:12:28.202Z,14.31
2019-03-27T22:17:35.839Z,15.07
2019-03-27T22:22:43.527Z,15.60
2019-03-27T22:27:51.173Z,15.27
2019-03-27T22:32:58.876Z,15.22
2019-03-27T22:38:06.488Z,13.90
2019-03-27T22:43:14.234Z,15.36
2019-03-27T22:48:21.905Z,13.85
2019-03-27T22:53:29.621Z,16.35
2019-03-27T22:58:37.231Z,14.01
2019-03-27T23:03:44.962Z,12.20
2019-03-27T23:08:52.630Z,11.35
2019-03-27T23:14:00.319Z,11.70
2019-03-27T23:19:07.991Z,11.77
2019-03-27T23:24:15.642Z,10.77
2019-03-27T23:29:23.268Z,11.96
2019-03-27T23:34:30.969Z,13.14
2019-03-27T23:39:38.624Z,11.83
2019-03-27T23:44:46.300Z,11.77
2019-03-27T23:49:53.918Z,12.48
2019-03-27T23:55:01.734Z,12.37
